createdAt,value
2018-11-07T00:04:14.723Z,6.80
2018-11-07T00:09:20.157Z,6.80
2018-11-07T00:14:25.069Z,6.80
2018-11-07T00:19:29.734Z,6.80
2018-11-07T00:24:40.461Z,6.70
2018-11-07T00:29:45.064Z,6.40
2018-11-07T00:34:50.451Z,6.30
2018-11-07T00:39:54.925Z,6.40
2018-11-07T00:44:59.489Z,6.50
2018-11-07T00:50:04.286Z,6.60
2018-11-07T00:55:08.923Z,6.70
2018-11-07T01:00:19.488Z,6.70
2018-11-07T01:05:24.043Z,6.40
2018-11-07T01:10:28.615Z,6.30
2018-11-07T01:15:33.261Z,6.30
2018-11-07T01:20:38.374Z,6.30
2018-11-07T01:25:42.972Z,6.30
2018-11-07T01:30:47.269Z,6.30
2018-11-07T01:35:51.954Z,6.20
2018-11-07T01:40:57.714Z,6.10
2018-11-07T01:46:02.034Z,6.10
2018-11-07T01:51:06.962Z,6.10
2018-11-07T01:56:11.413Z,5.90
2018-11-07T02:01:16.296Z,5.80
2018-11-07T02:06:20.879Z,5.90
2018-11-07T02:11:25.952Z,5.80
2018-11-07T02:16:30.369Z,6.00
2018-11-07T02:21:34.971Z,5.90
2018-11-07T02:26:40.355Z,5.80
2018-11-07T02:31:46.157Z,5.70
2018-11-07T02:36:50.789Z,5.60
2018-11-07T02:41:55.561Z,5.40
2018-11-07T02:46:59.991Z,5.40
2018-11-07T02:52:04.587Z,5.20
2018-11-07T02:57:09.149Z,5.20
2018-11-07T03:02:14.551Z,5.10
2018-11-07T03:07:19.403Z,5.10
2018-11-07T03:12:24.162Z,5.20
2018-11-07T03:17:28.645Z,5.40
2018-11-07T03:22:33.936Z,5.80
2018-11-07T03:27:39.426Z,5.90
2018-11-07T03:32:44.086Z,5.90
2018-11-07T03:37:55.258Z,5.70
2018-11-07T03:42:59.920Z,5.50
2018-11-07T03:48:04.372Z,5.30
2018-11-07T03:53:09.549Z,5.00
2018-11-07T03:58:14.096Z,5.00
2018-11-07T04:03:18.642Z,5.00
2018-11-07T04:08:23.305Z,5.10
2018-11-07T04:13:27.943Z,5.10
2018-11-07T04:18:34.239Z,5.00
2018-11-07T04:23:39.303Z,5.20
2018-11-07T04:28:44.772Z,5.30
2018-11-07T04:33:49.522Z,5.20
2018-11-07T04:38:54.519Z,5.20
2018-11-07T04:43:59.361Z,5.20
2018-11-07T04:49:04.784Z,5.30
2018-11-07T04:54:09.335Z,5.30
2018-11-07T04:59:13.988Z,5.10
2018-11-07T05:04:18.571Z,5.20
2018-11-07T05:09:23.010Z,5.10
2018-11-07T05:14:27.515Z,5.00
2018-11-07T05:19:33.213Z,5.30
2018-11-07T05:24:38.226Z,5.30
2018-11-07T05:29:42.883Z,5.20
2018-11-07T05:34:47.297Z,5.30
2018-11-07T05:41:17.221Z,5.40
2018-11-07T05:46:21.862Z,5.40
2018-11-07T05:51:26.236Z,5.40
2018-11-07T05:56:30.791Z,5.40
2018-11-07T06:01:35.594Z,5.30
2018-11-07T06:06:42.354Z,5.30
2018-11-07T06:11:47.407Z,5.10
2018-11-07T06:16:51.909Z,4.90
2018-11-07T06:21:56.388Z,4.90
2018-11-07T06:27:00.801Z,4.80
2018-11-07T06:32:05.439Z,5.00
2018-11-07T06:37:10.328Z,5.30
2018-11-07T06:42:15.336Z,5.60
2018-11-07T06:47:19.734Z,6.00
2018-11-07T06:52:24.294Z,6.50
2018-11-07T06:57:29.628Z,6.80
2018-11-07T07:02:34.441Z,7.00
2018-11-07T07:07:39.198Z,7.00
2018-11-07T07:12:44.259Z,7.10
2018-11-07T07:17:48.784Z,7.20
2018-11-07T07:22:54.147Z,7.30
2018-11-07T07:27:58.846Z,7.50
2018-11-07T07:33:03.632Z,7.60
2018-11-07T07:38:08.373Z,7.60
2018-11-07T07:43:13.470Z,7.70
2018-11-07T07:48:17.861Z,7.60
2018-11-07T07:53:22.805Z,7.60
2018-11-07T07:58:27.381Z,7.80
2018-11-07T08:03:31.761Z,7.80
2018-11-07T08:08:36.292Z,7.90
2018-11-07T08:13:40.848Z,8.30
2018-11-07T08:18:45.103Z,8.40
2018-11-07T08:23:49.560Z,8.40
2018-11-07T08:28:53.881Z,8.40
2018-11-07T08:33:58.925Z,8.40
2018-11-07T08:39:04.717Z,8.60
2018-11-07T08:44:09.546Z,9.00
2018-11-07T08:49:14.623Z,9.20
2018-11-07T08:54:19.100Z,9.10
2018-11-07T08:59:23.599Z,9.10
2018-11-07T09:04:28.683Z,9.40
2018-11-07T09:09:33.442Z,10.20
2018-11-07T09:14:38.729Z,9.90
2018-11-07T09:19:44.045Z,9.70
2018-11-07T09:24:49.055Z,10.30
2018-11-07T09:29:53.611Z,10.80
2018-11-07T09:34:58.012Z,11.60
2018-11-07T09:40:03.033Z,11.50
2018-11-07T09:45:08.783Z,11.30
2018-11-07T09:50:14.178Z,11.20
2018-11-07T09:55:20.014Z,11.20
2018-11-07T10:00:24.489Z,10.80
2018-11-07T10:05:29.204Z,10.60
2018-11-07T10:10:33.636Z,10.70
2018-11-07T10:15:38.274Z,11.20
2018-11-07T10:20:42.619Z,13.10
2018-11-07T10:25:46.948Z,14.50
2018-11-07T10:30:51.377Z,16.10
2018-11-07T10:35:56.066Z,17.50
2018-11-07T10:41:00.681Z,20.10
2018-11-07T10:46:05.409Z,21.20
2018-11-07T10:51:09.861Z,20.00
2018-11-07T10:56:15.092Z,19.60
2018-11-07T11:01:24.965Z,19.90
2018-11-07T11:06:29.555Z,19.40
2018-11-07T11:11:34.170Z,18.50
2018-11-07T11:16:39.361Z,19.90
2018-11-07T11:21:50.418Z,20.20
2018-11-07T11:26:55.564Z,19.30
2018-11-07T11:31:59.970Z,18.80
2018-11-07T11:37:04.400Z,19.10
2018-11-07T11:42:08.945Z,19.10
2018-11-07T11:47:13.969Z,19.70
2018-11-07T11:52:18.230Z,20.00
2018-11-07T11:57:22.958Z,19.60
2018-11-07T12:02:27.462Z,19.10
2018-11-07T12:07:32.411Z,19.70
2018-11-07T12:12:38.141Z,21.00
2018-11-07T12:17:42.871Z,21.00
2018-11-07T12:22:47.563Z,20.40
2018-11-07T12:27:51.803Z,22.00
2018-11-07T12:32:56.406Z,22.20
2018-11-07T12:38:00.728Z,21.30
2018-11-07T12:43:06.535Z,18.80
2018-11-07T12:48:11.035Z,16.70
2018-11-07T12:53:15.534Z,16.10
2018-11-07T12:58:20.711Z,16.00
2018-11-07T13:03:25.780Z,15.40
2018-11-07T13:08:30.177Z,15.10
2018-11-07T13:13:34.902Z,14.70
2018-11-07T13:18:39.334Z,14.80
2018-11-07T13:23:43.683Z,14.80
2018-11-07T13:28:48.253Z,14.80
2018-11-07T13:33:52.654Z,14.70
2018-11-07T13:38:57.526Z,14.20
2018-11-07T13:44:01.725Z,14.20
2018-11-07T13:49:06.628Z,14.00
2018-11-07T13:54:11.280Z,13.80
2018-11-07T13:59:17.114Z,13.70
2018-11-07T14:04:21.867Z,13.70
2018-11-07T14:09:27.819Z,13.60
2018-11-07T14:14:32.946Z,13.60
2018-11-07T14:19:38.793Z,13.60
2018-11-07T14:24:43.448Z,13.60
2018-11-07T14:29:48.127Z,13.70
2018-11-07T14:34:52.836Z,13.80
2018-11-07T14:39:57.388Z,13.90
2018-11-07T14:45:02.417Z,13.70
2018-11-07T14:50:08.177Z,13.60
2018-11-07T14:55:13.163Z,13.20
2018-11-07T15:00:18.087Z,12.70
2018-11-07T15:05:22.916Z,12.20
2018-11-07T15:10:27.569Z,11.90
2018-11-07T15:15:32.072Z,11.50
2018-11-07T15:20:36.609Z,11.40
2018-11-07T15:25:41.201Z,11.20
2018-11-07T15:30:45.791Z,11.00
2018-11-07T15:35:50.644Z,10.80
2018-11-07T15:40:55.715Z,10.80
2018-11-07T15:46:01.335Z,10.60
2018-11-07T15:51:11.474Z,10.40
2018-11-07T15:56:16.717Z,10.30
2018-11-07T16:01:21.839Z,10.00
2018-11-07T16:06:27.164Z,9.70
2018-11-07T16:11:31.784Z,9.30
2018-11-07T16:16:36.448Z,9.30
2018-11-07T16:21:41.189Z,9.40
2018-11-07T16:26:45.845Z,9.20
2018-11-07T16:31:51.058Z,8.90
2018-11-07T16:36:55.860Z,8.70
2018-11-07T16:42:00.957Z,8.80
2018-11-07T16:47:05.634Z,8.50
2018-11-07T16:52:10.055Z,8.30
2018-11-07T16:57:15.254Z,8.40
2018-11-07T17:02:36.935Z,8.40
2018-11-07T17:07:41.517Z,8.40
2018-11-07T17:12:45.992Z,8.40
2018-11-07T17:17:50.591Z,8.30
2018-11-07T17:22:57.868Z,8.40
2018-11-07T17:28:02.786Z,8.40
2018-11-07T17:33:07.322Z,8.50
2018-11-07T17:38:12.532Z,8.50
2018-11-07T17:43:17.211Z,8.60
2018-11-07T17:48:21.966Z,8.30
2018-11-07T17:53:28.064Z,8.30
2018-11-07T17:58:32.569Z,8.40
2018-11-07T18:03:37.189Z,8.20
2018-11-07T18:08:41.740Z,8.00
2018-11-07T18:13:46.079Z,7.90
2018-11-07T18:18:50.644Z,7.80
2018-11-07T18:23:55.177Z,8.20
2018-11-07T18:28:59.757Z,8.30
2018-11-07T18:34:04.507Z,8.20
2018-11-07T18:39:10.771Z,8.00
2018-11-07T18:44:15.551Z,8.00
2018-11-07T18:49:21.164Z,7.90
2018-11-07T18:54:25.754Z,7.80
2018-11-07T18:59:31.028Z,7.80
2018-11-07T19:04:35.581Z,7.80
2018-11-07T19:09:40.276Z,7.90
2018-11-07T19:14:44.794Z,7.90
2018-11-07T19:19:49.246Z,7.80
2018-11-07T19:24:53.660Z,7.80
2018-11-07T19:29:58.081Z,7.90
2018-11-07T19:35:07.066Z,8.10
2018-11-07T19:40:13.725Z,8.10
2018-11-07T19:45:19.156Z,8.10
2018-11-07T19:50:24.590Z,8.10
2018-11-07T19:55:29.212Z,8.20
2018-11-07T20:00:34.066Z,8.40
2018-11-07T20:05:49.380Z,8.30
2018-11-07T20:10:54.411Z,8.30
2018-11-07T20:15:58.842Z,8.40
2018-11-07T20:21:03.694Z,8.40
2018-11-07T20:26:08.427Z,8.50
2018-11-07T20:31:13.393Z,8.60
2018-11-07T20:36:19.621Z,8.60
2018-11-07T20:41:24.537Z,8.60
2018-11-07T20:46:29.211Z,8.50
2018-11-07T20:51:34.264Z,8.50
2018-11-07T20:56:39.423Z,8.50
2018-11-07T21:01:44.120Z,8.50
2018-11-07T21:06:49.083Z,8.60
2018-11-07T21:11:53.913Z,8.60
2018-11-07T21:17:00.214Z,8.60
2018-11-07T21:22:06.059Z,8.60
2018-11-07T21:27:11.492Z,8.60
2018-11-07T21:32:16.517Z,8.60
2018-11-07T21:37:22.293Z,8.50
2018-11-07T21:42:27.126Z,8.50
2018-11-07T21:47:34.124Z,8.50
2018-11-07T21:52:43.715Z,8.50
2018-11-07T21:57:48.392Z,8.50
2018-11-07T22:02:52.984Z,8.60
2018-11-07T22:07:58.533Z,8.60
2018-11-07T22:13:03.362Z,8.70
2018-11-07T22:18:08.284Z,8.70
2018-11-07T22:23:12.917Z,8.60
2018-11-07T22:28:17.255Z,8.60
2018-11-07T22:33:21.930Z,8.50
2018-11-07T22:38:27.678Z,8.50
2018-11-07T22:43:32.301Z,8.40
2018-11-07T22:48:37.238Z,8.40
2018-11-07T22:53:42.103Z,8.40
2018-11-07T22:58:46.799Z,8.50
2018-11-07T23:03:53.187Z,8.40
2018-11-07T23:08:58.199Z,8.40
2018-11-07T23:14:03.159Z,8.40
2018-11-07T23:19:08.050Z,8.40
2018-11-07T23:24:12.818Z,8.50
2018-11-07T23:29:17.435Z,8.60
2018-11-07T23:34:22.005Z,8.60
2018-11-07T23:39:26.468Z,8.70
2018-11-07T23:44:31.260Z,8.80
2018-11-07T23:49:36.089Z,8.80
2018-11-07T23:54:40.756Z,8.80
2018-11-07T23:59:45.638Z,8.80
